Flight Track Log - Related Links

Times and Time Zones

All times are in EDT time to prevent confusion due to time zone crossing. See the N816BG flight status page for this flight to view local times or setup timezone preferences in your user account.

Time Position Orientation Groundspeed Altitude Reporting Facility
EDT Latitude Longitude Course Direction KTS MPH feet Rate Location/Type
Fri 03:18:47 PM 41.5278 -81.6658 253° West 171 197 1,300  Level Cleveland Center
Fri 03:20:06 PM 41.5797 -81.7317 317° Northwest 268 308 5,400 2,120 Climbing Cleveland Center
Fri 03:21:00 PM 41.5703 -81.8208 262° West 268 308 6,000 330 Climbing Cleveland Center
Fri 03:21:55 PM 41.5619 -81.9117 263° West 270 311 6,000  Level Cleveland Center
Fri 03:22:10 PM 41.5606 -81.9272 263° West 264 304 6,000 701 Level Cleveland Center
Fri 03:23:12 PM 41.5481 -82.0247 260° West 265 305 6,900 1,887 Climbing Cleveland Center
Fri 03:24:00 PM 41.3356 -82.3902 253° West  Level FlightAware Approximate
Fri 03:24:14 PM 41.5206 -82.1194 249° West 272 313 9,900  Level Cleveland Center
Fri 03:25:16 PM 41.4753 -82.2056 235° Southwest 279 321 13,100 2,855 Climbing Cleveland Center
Fri 03:26:18 PM 41.4219 -82.3053 235° Southwest 280 322 15,800 2,274 Climbing Cleveland Center
Fri 03:27:20 PM 41.3714 -82.3978 234° Southwest 301 346 17,800 1,872 Climbing Cleveland Center
Fri 03:28:23 PM 41.3219 -82.4933 235° Southwest 308 354 19,700 1,680 Climbing Cleveland Center
Fri 03:29:25 PM 41.2986 -82.6075 255° West 317 365 21,300 1,597 Climbing Cleveland Center
Fri 03:30:27 PM 41.2822 -82.7253 260° West 320 368 23,000 1,306 Climbing Cleveland Center
Fri 03:31:29 PM 41.2661 -82.8458 260° West 326 375 24,000 484 Climbing Cleveland Center
Fri 03:32:31 PM 41.2800 -82.9992 277° West 365 420 24,000  Level Cleveland Center
Fri 03:33:33 PM 41.3467 -83.1156 307° West 397 457 24,000  Level Cleveland Center
Fri 03:34:35 PM 41.4278 -83.2161 317° Northwest 409 471 24,000  Level Cleveland Center
Fri 03:35:38 PM 41.5125 -83.3219 317° Northwest 414 476 24,000  Level Cleveland Center
Fri 03:36:40 PM 41.5986 -83.4294 317° Northwest 417 480 24,000  Level Cleveland Center
Fri 03:37:42 PM 41.6819 -83.5381 316° Northwest 420 483 24,000  Level Cleveland Center
Fri 03:38:44 PM 41.7686 -83.6844 308° West 419 482 24,000 -290 Level Cleveland Center
Fri 03:39:46 PM 41.8392 -83.8061 308° West 415 478 23,400 -774 Descending Cleveland Center
Fri 03:40:48 PM 41.9067 -83.9239 308° West 397 457 22,400 -968 Descending Cleveland Center
Fri 03:41:50 PM 41.9717 -84.0372 308° West 383 441 21,400 -919 Descending Cleveland Center
Fri 03:42:52 PM 42.0350 -84.1478 308° West 378 435 20,500 -1,104 Descending Cleveland Center
Fri 03:43:55 PM 42.0978 -84.2592 307° West 376 433 19,100 -1,440 Descending Cleveland Center
Fri 03:44:57 PM 42.1714 -84.3919 307° West 371 427 17,500 -1,500 Descending Cleveland Center
Fri 03:45:59 PM 42.2328 -84.4989 308° West 365 420 16,000 -1,452 Descending Cleveland Center
Fri 03:47:01 PM 42.2883 -84.5997 307° West 340 391 14,500 -1,452 Descending Cleveland Center
Fri 03:48:03 PM 42.3461 -84.7036 307° West 329 379 13,000 -1,452 Descending Cleveland Center
Fri 03:49:05 PM 42.4008 -84.8019 307° West 313 360 11,500 -1,452 Descending Cleveland Center
Fri 03:50:07 PM 42.4469 -84.8850 307° West 282 325 10,000 -1,500 Descending Cleveland Center
Fri 03:50:41 PM 42.4722 -84.9308 307° West 272 313 9,100 -1,091 Descending Chicago Center
Fri 03:51:02 PM 42.4819 -84.9475 308° West 271 312 9,000 -72 Descending Chicago Center
Fri 03:52:04 PM 42.5306 -85.0361 307° West 250 288 9,000  Level Chicago Center
Fri 03:53:06 PM 42.5681 -85.1072 306° West 239 275 9,000 -290 Level Chicago Center
Fri 03:54:08 PM 42.5781 -85.1983 279° West 258 297 8,400 -816 Descending Chicago Center
Fri 03:55:11 PM 42.6161 -85.2839 301° West 261 300 7,300 -1,008 Descending Chicago Center
Fri 03:56:13 PM 42.6528 -85.3675 301° West 261 300 6,300 -919 Descending Chicago Center
Fri 03:57:15 PM 42.6894 -85.4553 300° West 262 302 5,400 -968 Descending Chicago Center
Fri 03:58:17 PM 42.7331 -85.5558 301° West 262 302 4,300 -1,016 Descending Chicago Center
Fri 03:59:19 PM 42.7683 -85.6406 300° West 261 300 3,300 -871 Descending Chicago Center
Fri 04:00:21 PM 42.8033 -85.7258 299° West 261 300 2,500 -387 Descending Chicago Center
Fri 04:01:23 PM 42.8603 -85.7300 357° North 264 304 2,500 -97 Level Chicago Center
Fri 04:02:25 PM 42.8642 -85.6436 86° East 245 282 2,300 -480 Descending Chicago Center
Fri 04:03:28 PM 42.8717 -85.5833 80° East 194 223 1,500 -672 Descending Chicago Center
Fri 04:04:30 PM 42.8764 -85.5322 83° East 156 180 900 -581 Descending Chicago Center

Login

Don't have an account? Register now (free) for customized features, flight alerts, and more!